sensor_id;sensor_type;location;lat;lon;timestamp;pressure;altitude;pressure_sealevel;temperature;humidity
77027;BME280;65956;52.986;17.490;2024-03-02T00:00:51;99714.20;;;7.75;100.00
77027;BME280;65956;52.986;17.490;2024-03-02T00:03:38;99708.16;;;7.73;100.00
77027;BME280;65956;52.986;17.490;2024-03-02T00:06:04;99708.21;;;7.72;100.00
77027;BME280;65956;52.986;17.490;2024-03-02T00:08:30;99703.73;;;7.69;100.00
77027;BME280;65956;52.986;17.490;2024-03-02T00:10:58;99704.95;;;7.67;100.00
77027;BME280;65956;52.986;17.490;2024-03-02T00:13:25;99706.34;;;7.66;100.00
77027;BME280;65956;52.986;17.490;2024-03-02T00:15:56;99702.53;;;7.65;100.00
77027;BME280;65956;52.986;17.490;2024-03-02T00:18:27;99704.69;;;7.62;100.00
77027;BME280;65956;52.986;17.490;2024-03-02T00:20:56;99707.13;;;7.60;100.00
77027;BME280;65956;52.986;17.490;2024-03-02T00:23:24;99703.45;;;7.59;100.00
77027;BME280;65956;52.986;17.490;2024-03-02T00:25:52;99707.29;;;7.57;100.00
77027;BME280;65956;52.986;17.490;2024-03-02T00:28:24;99706.59;;;7.58;100.00
77027;BME280;65956;52.986;17.490;2024-03-02T00:31:02;99706.42;;;7.57;100.00
77027;BME280;65956;52.986;17.490;2024-03-02T00:33:41;99705.86;;;7.56;100.00
77027;BME280;65956;52.986;17.490;2024-03-02T00:36:08;99701.97;;;7.56;100.00
77027;BME280;65956;52.986;17.490;2024-03-02T00:38:51;99706.08;;;7.56;100.00
77027;BME280;65956;52.986;17.490;2024-03-02T00:41:30;99703.20;;;7.54;100.00
77027;BME280;65956;52.986;17.490;2024-03-02T00:43:57;99698.67;;;7.54;100.00
77027;BME280;65956;52.986;17.490;2024-03-02T00:46:24;99690.11;;;7.54;100.00
77027;BME280;65956;52.986;17.490;2024-03-02T00:48:53;99690.02;;;7.52;100.00
77027;BME280;65956;52.986;17.490;2024-03-02T00:51:21;99685.73;;;7.51;100.00
77027;BME280;65956;52.986;17.490;2024-03-02T00:53:47;99681.27;;;7.50;100.00
77027;BME280;65956;52.986;17.490;2024-03-02T00:56:13;99676.67;;;7.50;100.00
77027;BME280;65956;52.986;17.490;2024-03-02T00:58:40;99678.41;;;7.50;100.00
77027;BME280;65956;52.986;17.490;2024-03-02T01:01:06;99676.73;;;7.49;100.00
77027;BME280;65956;52.986;17.490;2024-03-02T01:03:33;99678.70;;;7.49;100.00
77027;BME280;65956;52.986;17.490;2024-03-02T01:06:00;99678.06;;;7.48;100.00
77027;BME280;65956;52.986;17.490;2024-03-02T01:08:26;99674.96;;;7.48;100.00
77027;BME280;65956;52.986;17.490;2024-03-02T01:10:52;99667.73;;;7.47;100.00
77027;BME280;65956;52.986;17.490;2024-03-02T01:13:18;99664.84;;;7.45;100.00
77027;BME280;65956;52.986;17.490;2024-03-02T01:15:44;99657.55;;;7.45;100.00
77027;BME280;65956;52.986;17.490;2024-03-02T01:18:10;99664.97;;;7.43;100.00
77027;BME280;65956;52.986;17.490;2024-03-02T01:20:36;99671.39;;;7.43;100.00
77027;BME280;65956;52.986;17.490;2024-03-02T01:23:03;99666.02;;;7.43;100.00
77027;BME280;65956;52.986;17.490;2024-03-02T01:25:29;99664.75;;;7.43;100.00
77027;BME280;65956;52.986;17.490;2024-03-02T01:27:55;99665.91;;;7.42;100.00
77027;BME280;65956;52.986;17.490;2024-03-02T01:30:24;99657.02;;;7.42;100.00
77027;BME280;65956;52.986;17.490;2024-03-02T01:32:50;99658.27;;;7.41;100.00
77027;BME280;65956;52.986;17.490;2024-03-02T01:35:16;99668.16;;;7.41;100.00
77027;BME280;65956;52.986;17.490;2024-03-02T01:37:42;99663.96;;;7.41;100.00
77027;BME280;65956;52.986;17.490;2024-03-02T01:40:08;99663.40;;;7.40;100.00
77027;BME280;65956;52.986;17.490;2024-03-02T01:42:38;99662.85;;;7.40;100.00
77027;BME280;65956;52.986;17.490;2024-03-02T01:45:08;99662.38;;;7.39;100.00
77027;BME280;65956;52.986;17.490;2024-03-02T01:47:35;99661.80;;;7.39;100.00
77027;BME280;65956;52.986;17.490;2024-03-02T01:50:01;99661.96;;;7.39;100.00
77027;BME280;65956;52.986;17.490;2024-03-02T01:52:27;99659.02;;;7.38;100.00
77027;BME280;65956;52.986;17.490;2024-03-02T01:54:54;99661.52;;;7.37;100.00
77027;BME280;65956;52.986;17.490;2024-03-02T01:57:20;99661.58;;;7.36;100.00
77027;BME280;65956;52.986;17.490;2024-03-02T01:59:46;99657.45;;;7.34;100.00
77027;BME280;65956;52.986;17.490;2024-03-02T02:02:16;99653.96;;;7.34;100.00
77027;BME280;65956;52.986;17.490;2024-03-02T02:04:43;99649.49;;;7.33;100.00
77027;BME280;65956;52.986;17.490;2024-03-02T02:07:09;99652.48;;;7.32;100.00
77027;BME280;65956;52.986;17.490;2024-03-02T02:09:36;99654.92;;;7.32;100.00
77027;BME280;65956;52.986;17.490;2024-03-02T02:12:02;99651.21;;;7.32;100.00
77027;BME280;65956;52.986;17.490;2024-03-02T02:14:30;99641.70;;;7.32;100.00
77027;BME280;65956;52.986;17.490;2024-03-02T02:16:56;99634.73;;;7.31;100.00
77027;BME280;65956;52.986;17.490;2024-03-02T02:19:23;99636.70;;;7.31;100.00
77027;BME280;65956;52.986;17.490;2024-03-02T02:21:49;99640.99;;;7.31;100.00
77027;BME280;65956;52.986;17.490;2024-03-02T02:24:15;99643.66;;;7.30;100.00
77027;BME280;65956;52.986;17.490;2024-03-02T02:26:41;99644.73;;;7.28;100.00
77027;BME280;65956;52.986;17.490;2024-03-02T02:29:07;99648.36;;;7.28;100.00
77027;BME280;65956;52.986;17.490;2024-03-02T02:31:40;99650.97;;;7.27;100.00
77027;BME280;65956;52.986;17.490;2024-03-02T02:34:07;99653.19;;;7.27;100.00
77027;BME280;65956;52.986;17.490;2024-03-02T02:36:33;99658.65;;;7.26;100.00
77027;BME280;65956;52.986;17.490;2024-03-02T02:39:02;99656.59;;;7.27;100.00
77027;BME280;65956;52.986;17.490;2024-03-02T02:41:30;99656.34;;;7.27;100.00
77027;BME280;65956;52.986;17.490;2024-03-02T02:43:56;99649.45;;;7.27;100.00
77027;BME280;65956;52.986;17.490;2024-03-02T02:46:22;99650.49;;;7.27;100.00
77027;BME280;65956;52.986;17.490;2024-03-02T02:48:48;99649.78;;;7.26;100.00
77027;BME280;65956;52.986;17.490;2024-03-02T02:51:16;99645.00;;;7.25;100.00
77027;BME280;65956;52.986;17.490;2024-03-02T02:53:42;99642.55;;;7.25;100.00
77027;BME280;65956;52.986;17.490;2024-03-02T02:56:08;99638.86;;;7.26;100.00
77027;BME280;65956;52.986;17.490;2024-03-02T02:58:35;99636.54;;;7.26;100.00
77027;BME280;65956;52.986;17.490;2024-03-02T03:01:01;99638.33;;;7.24;100.00
77027;BME280;65956;52.986;17.490;2024-03-02T03:03:27;99638.54;;;7.23;100.00
77027;BME280;65956;52.986;17.490;2024-03-02T03:05:53;99639.52;;;7.24;100.00
77027;BME280;65956;52.986;17.490;2024-03-02T03:08:19;99640.35;;;7.23;100.00
77027;BME280;65956;52.986;17.490;2024-03-02T03:10:46;99646.59;;;7.22;100.00
77027;BME280;65956;52.986;17.490;2024-03-02T03:13:12;99644.21;;;7.22;100.00
77027;BME280;65956;52.986;17.490;2024-03-02T03:15:38;99642.02;;;7.21;100.00
77027;BME280;65956;52.986;17.490;2024-03-02T03:18:04;99639.04;;;7.20;100.00
77027;BME280;65956;52.986;17.490;2024-03-02T03:20:31;99636.70;;;7.19;100.00
77027;BME280;65956;52.986;17.490;2024-03-02T03:22:57;99633.29;;;7.17;100.00
77027;BME280;65956;52.986;17.490;2024-03-02T03:25:23;99638.19;;;7.16;100.00
77027;BME280;65956;52.986;17.490;2024-03-02T03:27:49;99638.02;;;7.16;100.00
77027;BME280;65956;52.986;17.490;2024-03-02T03:30:18;99638.40;;;7.16;100.00
77027;BME280;65956;52.986;17.490;2024-03-02T03:32:44;99640.81;;;7.13;100.00
77027;BME280;65956;52.986;17.490;2024-03-02T03:35:11;99640.23;;;7.13;100.00
77027;BME280;65956;52.986;17.490;2024-03-02T03:37:38;99635.55;;;7.11;100.00
77027;BME280;65956;52.986;17.490;2024-03-02T03:40:05;99633.73;;;7.12;100.00
77027;BME280;65956;52.986;17.490;2024-03-02T03:42:38;99632.96;;;7.13;100.00
77027;BME280;65956;52.986;17.490;2024-03-02T03:45:05;99625.09;;;7.11;100.00
77027;BME280;65956;52.986;17.490;2024-03-02T03:47:32;99622.34;;;7.09;100.00
77027;BME280;65956;52.986;17.490;2024-03-02T03:49:58;99620.77;;;7.09;100.00
77027;BME280;65956;52.986;17.490;2024-03-02T03:52:25;99622.74;;;7.09;100.00
77027;BME280;65956;52.986;17.490;2024-03-02T03:54:51;99623.77;;;7.07;100.00
77027;BME280;65956;52.986;17.490;2024-03-02T03:57:17;99626.67;;;7.07;100.00
77027;BME280;65956;52.986;17.490;2024-03-02T03:59:43;99620.71;;;7.06;100.00
77027;BME280;65956;52.986;17.490;2024-03-02T04:02:10;99619.27;;;7.05;100.00
77027;BME280;65956;52.986;17.490;2024-03-02T04:04:38;99624.56;;;7.04;100.00
77027;BME280;65956;52.986;17.490;2024-03-02T04:07:04;99628.30;;;7.02;100.00
77027;BME280;65956;52.986;17.490;2024-03-02T04:09:30;99626.38;;;7.01;100.00
77027;BME280;65956;52.986;17.490;2024-03-02T04:11:56;99622.27;;;7.01;100.00
77027;BME280;65956;52.986;17.490;2024-03-02T04:14:22;99615.94;;;7.00;100.00
77027;BME280;65956;52.986;17.490;2024-03-02T04:16:49;99618.67;;;6.99;100.00
77027;BME280;65956;52.986;17.490;2024-03-02T04:19:15;99623.39;;;6.98;100.00
77027;BME280;65956;52.986;17.490;2024-03-02T04:21:41;99622.79;;;6.96;100.00
77027;BME280;65956;52.986;17.490;2024-03-02T04:24:07;99623.54;;;6.93;100.00
77027;BME280;65956;52.986;17.490;2024-03-02T04:26:34;99625.02;;;6.92;100.00
77027;BME280;65956;52.986;17.490;2024-03-02T04:29:00;99625.47;;;6.91;100.00
77027;BME280;65956;52.986;17.490;2024-03-02T04:31:26;99628.13;;;6.89;100.00
77027;BME280;65956;52.986;17.490;2024-03-02T04:33:52;99627.30;;;6.88;100.00
77027;BME280;65956;52.986;17.490;2024-03-02T04:36:18;99626.98;;;6.87;100.00
77027;BME280;65956;52.986;17.490;2024-03-02T04:38:44;99631.14;;;6.85;100.00
77027;BME280;65956;52.986;17.490;2024-03-02T04:41:10;99634.42;;;6.84;100.00
77027;BME280;65956;52.986;17.490;2024-03-02T04:43:36;99636.75;;;6.82;100.00
77027;BME280;65956;52.986;17.490;2024-03-02T04:46:02;99633.71;;;6.80;100.00
77027;BME280;65956;52.986;17.490;2024-03-02T04:48:29;99626.23;;;6.77;100.00
77027;BME280;65956;52.986;17.490;2024-03-02T04:50:55;99633.62;;;6.76;100.00
77027;BME280;65956;52.986;17.490;2024-03-02T04:53:21;99637.39;;;6.75;100.00
77027;BME280;65956;52.986;17.490;2024-03-02T04:55:47;99638.39;;;6.73;100.00
77027;BME280;65956;52.986;17.490;2024-03-02T04:58:22;99632.77;;;6.72;100.00
77027;BME280;65956;52.986;17.490;2024-03-02T05:00:48;99632.52;;;6.72;100.00
77027;BME280;65956;52.986;17.490;2024-03-02T05:03:14;99637.24;;;6.71;100.00
77027;BME280;65956;52.986;17.490;2024-03-02T05:05:40;99648.14;;;6.70;100.00
77027;BME280;65956;52.986;17.490;2024-03-02T05:08:06;99643.14;;;6.69;100.00
77027;BME280;65956;52.986;17.490;2024-03-02T05:10:32;99641.14;;;6.68;100.00
77027;BME280;65956;52.986;17.490;2024-03-02T05:12:58;99648.29;;;6.67;100.00
77027;BME280;65956;52.986;17.490;2024-03-02T05:15:25;99648.43;;;6.66;100.00
77027;BME280;65956;52.986;17.490;2024-03-02T05:17:51;99651.13;;;6.66;100.00
77027;BME280;65956;52.986;17.490;2024-03-02T05:20:18;99647.63;;;6.65;100.00
77027;BME280;65956;52.986;17.490;2024-03-02T05:22:44;99650.71;;;6.65;100.00
77027;BME280;65956;52.986;17.490;2024-03-02T05:25:10;99650.69;;;6.64;100.00
77027;BME280;65956;52.986;17.490;2024-03-02T05:27:36;99650.53;;;6.64;100.00
77027;BME280;65956;52.986;17.490;2024-03-02T05:30:04;99656.05;;;6.63;100.00
77027;BME280;65956;52.986;17.490;2024-03-02T05:32:35;99661.27;;;6.63;100.00
77027;BME280;65956;52.986;17.490;2024-03-02T05:35:01;99665.36;;;6.63;100.00
77027;BME280;65956;52.986;17.490;2024-03-02T05:37:28;99666.24;;;6.63;100.00
77027;BME280;65956;52.986;17.490;2024-03-02T05:39:54;99669.78;;;6.62;100.00
77027;BME280;65956;52.986;17.490;2024-03-02T05:42:20;99671.35;;;6.62;100.00
77027;BME280;65956;52.986;17.490;2024-03-02T05:44:47;99670.55;;;6.61;100.00
77027;BME280;65956;52.986;17.490;2024-03-02T05:47:13;99673.95;;;6.61;100.00
77027;BME280;65956;52.986;17.490;2024-03-02T05:49:39;99676.00;;;6.60;100.00
77027;BME280;65956;52.986;17.490;2024-03-02T05:52:05;99674.01;;;6.60;100.00
77027;BME280;65956;52.986;17.490;2024-03-02T05:54:32;99675.12;;;6.60;100.00
77027;BME280;65956;52.986;17.490;2024-03-02T05:56:58;99675.27;;;6.60;100.00
77027;BME280;65956;52.986;17.490;2024-03-02T05:59:42;99675.92;;;6.60;100.00
77027;BME280;65956;52.986;17.490;2024-03-02T06:02:09;99683.13;;;6.61;100.00
77027;BME280;65956;52.986;17.490;2024-03-02T06:04:35;99684.80;;;6.61;100.00
77027;BME280;65956;52.986;17.490;2024-03-02T06:07:02;99687.55;;;6.61;100.00
77027;BME280;65956;52.986;17.490;2024-03-02T06:09:28;99688.87;;;6.63;100.00
77027;BME280;65956;52.986;17.490;2024-03-02T06:11:54;99685.55;;;6.63;100.00
77027;BME280;65956;52.986;17.490;2024-03-02T06:14:20;99693.62;;;6.63;100.00
77027;BME280;65956;52.986;17.490;2024-03-02T06:16:46;99687.46;;;6.64;100.00
77027;BME280;65956;52.986;17.490;2024-03-02T06:19:12;99687.88;;;6.64;100.00
77027;BME280;65956;52.986;17.490;2024-03-02T06:21:38;99690.02;;;6.65;100.00
77027;BME280;65956;52.986;17.490;2024-03-02T06:24:05;99689.98;;;6.67;100.00
77027;BME280;65956;52.986;17.490;2024-03-02T06:26:31;99697.88;;;6.69;100.00
77027;BME280;65956;52.986;17.490;2024-03-02T06:28:57;99700.98;;;6.71;100.00
77027;BME280;65956;52.986;17.490;2024-03-02T06:31:23;99692.28;;;6.74;100.00
77027;BME280;65956;52.986;17.490;2024-03-02T06:33:51;99696.33;;;6.75;100.00
77027;BME280;65956;52.986;17.490;2024-03-02T06:36:17;99691.67;;;6.75;100.00
77027;BME280;65956;52.986;17.490;2024-03-02T06:38:43;99696.77;;;6.80;100.00
77027;BME280;65956;52.986;17.490;2024-03-02T06:41:09;99699.70;;;6.84;100.00
77027;BME280;65956;52.986;17.490;2024-03-02T06:43:36;99699.02;;;6.90;100.00
77027;BME280;65956;52.986;17.490;2024-03-02T06:46:02;99703.41;;;6.94;100.00
77027;BME280;65956;52.986;17.490;2024-03-02T06:48:29;99704.06;;;6.99;100.00
77027;BME280;65956;52.986;17.490;2024-03-02T06:50:55;99700.52;;;7.04;100.00
77027;BME280;65956;52.986;17.490;2024-03-02T06:53:23;99693.42;;;7.09;100.00
77027;BME280;65956;52.986;17.490;2024-03-02T06:55:49;99693.10;;;7.12;100.00
77027;BME280;65956;52.986;17.490;2024-03-02T06:58:15;99687.79;;;7.15;100.00
77027;BME280;65956;52.986;17.490;2024-03-02T07:00:42;99688.70;;;7.18;100.00
77027;BME280;65956;52.986;17.490;2024-03-02T07:03:08;99687.27;;;7.21;100.00
77027;BME280;65956;52.986;17.490;2024-03-02T07:05:35;99692.23;;;7.24;100.00
77027;BME280;65956;52.986;17.490;2024-03-02T07:08:02;99695.34;;;7.29;100.00
77027;BME280;65956;52.986;17.490;2024-03-02T07:10:29;99699.41;;;7.35;100.00
77027;BME280;65956;52.986;17.490;2024-03-02T07:12:55;99697.72;;;7.41;100.00
77027;BME280;65956;52.986;17.490;2024-03-02T07:15:21;99699.63;;;7.49;100.00
77027;BME280;65956;52.986;17.490;2024-03-02T07:17:53;99700.65;;;7.57;100.00
77027;BME280;65956;52.986;17.490;2024-03-02T07:20:19;99699.68;;;7.65;100.00
77027;BME280;65956;52.986;17.490;2024-03-02T07:22:45;99698.25;;;7.73;100.00
77027;BME280;65956;52.986;17.490;2024-03-02T07:25:11;99696.42;;;7.82;100.00
77027;BME280;65956;52.986;17.490;2024-03-02T07:27:39;99696.35;;;7.90;100.00
77027;BME280;65956;52.986;17.490;2024-03-02T07:30:06;99692.77;;;7.98;100.00
77027;BME280;65956;52.986;17.490;2024-03-02T07:32:32;99698.12;;;8.06;100.00
77027;BME280;65956;52.986;17.490;2024-03-02T07:34:58;99688.02;;;8.13;100.00
77027;BME280;65956;52.986;17.490;2024-03-02T07:37:24;99698.48;;;8.17;100.00
77027;BME280;65956;52.986;17.490;2024-03-02T07:39:51;99709.56;;;8.22;100.00
77027;BME280;65956;52.986;17.490;2024-03-02T07:42:17;99710.84;;;8.27;100.00
77027;BME280;65956;52.986;17.490;2024-03-02T07:44:44;99710.42;;;8.34;100.00
77027;BME280;65956;52.986;17.490;2024-03-02T07:47:11;99712.41;;;8.39;100.00
77027;BME280;65956;52.986;17.490;2024-03-02T07:49:37;99720.54;;;8.41;100.00
77027;BME280;65956;52.986;17.490;2024-03-02T07:52:04;99721.77;;;8.44;100.00
77027;BME280;65956;52.986;17.490;2024-03-02T07:54:30;99729.40;;;8.50;100.00
77027;BME280;65956;52.986;17.490;2024-03-02T07:56:56;99728.52;;;8.59;100.00
77027;BME280;65956;52.986;17.490;2024-03-02T07:59:22;99725.58;;;8.69;100.00
77027;BME280;65956;52.986;17.490;2024-03-02T08:01:49;99735.08;;;8.78;100.00
77027;BME280;65956;52.986;17.490;2024-03-02T08:04:16;99736.52;;;8.90;100.00
77027;BME280;65956;52.986;17.490;2024-03-02T08:06:42;99736.21;;;9.01;100.00
77027;BME280;65956;52.986;17.490;2024-03-02T08:09:09;99744.27;;;9.05;100.00
77027;BME280;65956;52.986;17.490;2024-03-02T08:11:37;99748.25;;;9.06;100.00
77027;BME280;65956;52.986;17.490;2024-03-02T08:14:04;99741.92;;;9.06;100.00
77027;BME280;65956;52.986;17.490;2024-03-02T08:16:30;99740.77;;;9.03;100.00
77027;BME280;65956;52.986;17.490;2024-03-02T08:18:56;99745.23;;;9.04;100.00
77027;BME280;65956;52.986;17.490;2024-03-02T08:21:24;99744.67;;;9.04;100.00
77027;BME280;65956;52.986;17.490;2024-03-02T08:23:50;99751.63;;;9.08;100.00
77027;BME280;65956;52.986;17.490;2024-03-02T08:26:17;99751.17;;;9.21;100.00
77027;BME280;65956;52.986;17.490;2024-03-02T08:28:43;99743.79;;;9.41;100.00
77027;BME280;65956;52.986;17.490;2024-03-02T08:31:09;99743.92;;;9.58;100.00
77027;BME280;65956;52.986;17.490;2024-03-02T08:33:36;99743.73;;;9.69;100.00
77027;BME280;65956;52.986;17.490;2024-03-02T08:36:02;99738.63;;;9.74;100.00
77027;BME280;65956;52.986;17.490;2024-03-02T08:38:29;99742.14;;;9.69;100.00
77027;BME280;65956;52.986;17.490;2024-03-02T08:40:55;99739.14;;;9.63;100.00
77027;BME280;65956;52.986;17.490;2024-03-02T08:43:22;99745.58;;;9.57;100.00
77027;BME280;65956;52.986;17.490;2024-03-02T08:45:51;99740.98;;;9.51;100.00
77027;BME280;65956;52.986;17.490;2024-03-02T08:48:17;99739.61;;;9.50;100.00
77027;BME280;65956;52.986;17.490;2024-03-02T08:50:43;99745.26;;;9.56;100.00
77027;BME280;65956;52.986;17.490;2024-03-02T08:53:09;99750.48;;;9.68;100.00
77027;BME280;65956;52.986;17.490;2024-03-02T08:55:36;99751.11;;;9.82;100.00
77027;BME280;65956;52.986;17.490;2024-03-02T08:58:02;99751.77;;;10.06;100.00
77027;BME280;65956;52.986;17.490;2024-03-02T09:00:29;99753.50;;;10.27;100.00
77027;BME280;65956;52.986;17.490;2024-03-02T09:02:55;99761.83;;;10.41;100.00
77027;BME280;65956;52.986;17.490;2024-03-02T09:05:21;99754.42;;;10.60;100.00
77027;BME280;65956;52.986;17.490;2024-03-02T09:07:47;99756.57;;;10.81;100.00
77027;BME280;65956;52.986;17.490;2024-03-02T09:10:13;99758.80;;;10.94;99.52
77027;BME280;65956;52.986;17.490;2024-03-02T09:12:40;99759.77;;;10.96;98.50
77027;BME280;65956;52.986;17.490;2024-03-02T09:15:06;99765.09;;;10.94;98.87
77027;BME280;65956;52.986;17.490;2024-03-02T09:17:32;99761.02;;;10.90;99.58
77027;BME280;65956;52.986;17.490;2024-03-02T09:19:59;99769.67;;;10.88;100.00
77027;BME280;65956;52.986;17.490;2024-03-02T09:22:25;99763.65;;;10.82;99.91
77027;BME280;65956;52.986;17.490;2024-03-02T09:24:51;99768.33;;;10.77;100.00
77027;BME280;65956;52.986;17.490;2024-03-02T09:27:17;99767.14;;;10.77;100.00
77027;BME280;65956;52.986;17.490;2024-03-02T09:29:43;99761.98;;;10.81;100.00
77027;BME280;65956;52.986;17.490;2024-03-02T09:32:12;99764.80;;;10.85;99.98
77027;BME280;65956;52.986;17.490;2024-03-02T09:34:40;99759.89;;;10.88;99.69
77027;BME280;65956;52.986;17.490;2024-03-02T09:37:06;99757.14;;;10.96;99.46
77027;BME280;65956;52.986;17.490;2024-03-02T09:39:32;99756.08;;;11.02;98.96
77027;BME280;65956;52.986;17.490;2024-03-02T09:41:58;99759.92;;;11.06;99.14
77027;BME280;65956;52.986;17.490;2024-03-02T09:44:25;99761.41;;;11.17;99.29
77027;BME280;65956;52.986;17.490;2024-03-02T09:46:52;99756.04;;;11.40;98.69
77027;BME280;65956;52.986;17.490;2024-03-02T09:49:18;99750.91;;;11.71;98.76
77027;BME280;65956;52.986;17.490;2024-03-02T09:51:47;99752.83;;;11.95;97.79
77027;BME280;65956;52.986;17.490;2024-03-02T09:54:13;99757.33;;;12.06;96.84
77027;BME280;65956;52.986;17.490;2024-03-02T09:56:39;99755.58;;;12.08;95.91
77027;BME280;65956;52.986;17.490;2024-03-02T09:59:05;99756.22;;;12.04;96.09
77027;BME280;65956;52.986;17.490;2024-03-02T10:01:31;99751.98;;;12.08;97.05
77027;BME280;65956;52.986;17.490;2024-03-02T12:00:29;99730.23;;;16.76;74.72
77027;BME280;65956;52.986;17.490;2024-03-02T12:03:04;99725.80;;;16.76;75.14
77027;BME280;65956;52.986;17.490;2024-03-02T12:05:31;99727.58;;;16.85;74.92
77027;BME280;65956;52.986;17.490;2024-03-02T12:07:58;99728.45;;;16.80;74.78
77027;BME280;65956;52.986;17.490;2024-03-02T12:10:25;99732.49;;;16.79;74.20
77027;BME280;65956;52.986;17.490;2024-03-02T12:12:59;99732.71;;;16.90;74.88
77027;BME280;65956;52.986;17.490;2024-03-02T12:15:33;99732.56;;;17.07;74.28
77027;BME280;65956;52.986;17.490;2024-03-02T12:18:01;99730.80;;;17.19;73.63
77027;BME280;65956;52.986;17.490;2024-03-02T12:20:29;99722.98;;;17.37;73.27
77027;BME280;65956;52.986;17.490;2024-03-02T12:22:58;99723.20;;;17.54;72.70
77027;BME280;65956;52.986;17.490;2024-03-02T12:25:25;99723.49;;;17.68;72.83
77027;BME280;65956;52.986;17.490;2024-03-02T12:27:55;99721.83;;;17.77;72.15
77027;BME280;65956;52.986;17.490;2024-03-02T12:30:22;99719.86;;;17.79;70.81
77027;BME280;65956;52.986;17.490;2024-03-02T12:32:49;99719.90;;;17.74;70.59
77027;BME280;65956;52.986;17.490;2024-03-02T12:35:16;99721.20;;;17.80;71.42
77027;BME280;65956;52.986;17.490;2024-03-02T12:37:48;99716.63;;;18.01;71.15
77027;BME280;65956;52.986;17.490;2024-03-02T12:40:16;99712.84;;;18.58;68.95
77027;BME280;65956;52.986;17.490;2024-03-02T12:42:45;99714.34;;;19.42;66.11
77027;BME280;65956;52.986;17.490;2024-03-02T12:45:12;99716.46;;;20.23;65.85
77027;BME280;65956;52.986;17.490;2024-03-02T12:47:39;99711.98;;;20.73;64.20
77027;BME280;65956;52.986;17.490;2024-03-02T12:50:07;99713.36;;;20.73;62.55
77027;BME280;65956;52.986;17.490;2024-03-02T12:52:34;99722.41;;;20.18;63.50
77027;BME280;65956;52.986;17.490;2024-03-02T12:55:04;99719.43;;;20.08;64.43
77027;BME280;65956;52.986;17.490;2024-03-02T12:57:32;99718.00;;;19.97;62.46
77027;BME280;65956;52.986;17.490;2024-03-02T12:59:59;99711.50;;;20.18;61.84
77027;BME280;65956;52.986;17.490;2024-03-02T13:02:28;99706.48;;;20.66;60.02
77027;BME280;65956;52.986;17.490;2024-03-02T13:04:56;99709.82;;;21.10;58.83
77027;BME280;65956;52.986;17.490;2024-03-02T13:07:23;99707.29;;;20.90;59.04
77027;BME280;65956;52.986;17.490;2024-03-02T13:09:50;99707.09;;;20.53;60.98
77027;BME280;65956;52.986;17.490;2024-03-02T13:12:19;99711.73;;;20.31;59.27
77027;BME280;65956;52.986;17.490;2024-03-02T13:14:48;99718.64;;;20.04;61.11
77027;BME280;65956;52.986;17.490;2024-03-02T13:17:20;99716.11;;;20.41;61.01
77027;BME280;65956;52.986;17.490;2024-03-02T13:19:56;99710.31;;;20.93;59.43
77027;BME280;65956;52.986;17.490;2024-03-02T13:22:23;99710.70;;;20.70;59.09
77027;BME280;65956;52.986;17.490;2024-03-02T13:24:50;99711.27;;;20.94;58.86
77027;BME280;65956;52.986;17.490;2024-03-02T13:27:17;99707.48;;;21.28;57.33
77027;BME280;65956;52.986;17.490;2024-03-02T13:29:46;99708.64;;;21.30;57.13
77027;BME280;65956;52.986;17.490;2024-03-02T13:32:14;99713.10;;;21.32;56.05
77027;BME280;65956;52.986;17.490;2024-03-02T13:34:40;99710.54;;;21.20;57.74
77027;BME280;65956;52.986;17.490;2024-03-02T13:37:07;99714.31;;;20.94;57.56
77027;BME280;65956;52.986;17.490;2024-03-02T13:39:33;99712.59;;;20.46;58.34
77027;BME280;65956;52.986;17.490;2024-03-02T13:42:09;99713.69;;;20.00;59.05
77027;BME280;65956;52.986;17.490;2024-03-02T13:44:37;99719.30;;;19.61;60.35
77027;BME280;65956;52.986;17.490;2024-03-02T13:47:03;99715.33;;;19.51;60.68
77027;BME280;65956;52.986;17.490;2024-03-02T13:49:30;99716.41;;;19.41;60.22
77027;BME280;65956;52.986;17.490;2024-03-02T13:52:02;99716.05;;;19.27;60.40
77027;BME280;65956;52.986;17.490;2024-03-02T13:54:30;99716.61;;;19.39;60.58
77027;BME280;65956;52.986;17.490;2024-03-02T13:56:56;99717.36;;;19.56;60.11
77027;BME280;65956;52.986;17.490;2024-03-02T13:59:25;99716.98;;;19.77;59.83
77027;BME280;65956;52.986;17.490;2024-03-02T14:01:52;99718.30;;;19.78;59.83
77027;BME280;65956;52.986;17.490;2024-03-02T14:04:18;99718.40;;;19.73;59.86
77027;BME280;65956;52.986;17.490;2024-03-02T14:06:44;99719.41;;;19.57;60.54
77027;BME280;65956;52.986;17.490;2024-03-02T14:09:25;99719.38;;;19.23;61.10
77027;BME280;65956;52.986;17.490;2024-03-02T14:11:56;99721.53;;;18.85;61.49
77027;BME280;65956;52.986;17.490;2024-03-02T14:14:22;99722.70;;;18.45;61.73
77027;BME280;65956;52.986;17.490;2024-03-02T14:16:49;99724.50;;;17.88;62.55
77027;BME280;65956;52.986;17.490;2024-03-02T14:19:15;99727.40;;;17.45;63.44
77027;BME280;65956;52.986;17.490;2024-03-02T14:21:41;99728.55;;;17.15;64.64
77027;BME280;65956;52.986;17.490;2024-03-02T14:24:07;99728.48;;;16.92;65.48
77027;BME280;65956;52.986;17.490;2024-03-02T14:26:34;99731.48;;;16.63;66.36
77027;BME280;65956;52.986;17.490;2024-03-02T14:29:39;99729.80;;;16.32;67.31
77027;BME280;65956;52.986;17.490;2024-03-02T14:32:06;99733.90;;;15.82;68.23
77027;BME280;65956;52.986;17.490;2024-03-02T14:34:33;99729.71;;;15.50;69.35
77027;BME280;65956;52.986;17.490;2024-03-02T14:36:59;99727.27;;;15.25;70.39
77027;BME280;65956;52.986;17.490;2024-03-02T14:39:27;99725.32;;;14.97;71.42
77027;BME280;65956;52.986;17.490;2024-03-02T14:41:53;99723.34;;;14.63;72.31
77027;BME280;65956;52.986;17.490;2024-03-02T14:44:21;99721.42;;;14.30;73.13
77027;BME280;65956;52.986;17.490;2024-03-02T14:46:48;99721.73;;;14.08;73.90